[2025-03-02 00:00:00, 2025-03-02 23:59:59] previous next
| time | temperature | air pressure | humidity | solar radiation | wind speed |
|---|---|---|---|---|---|
| 2025-03-02 07:32:09 | -0.4 | 1026.6 | 99.0 | 21.2 | 0.0 |
| 2025-03-02 07:52:32 | 0.3 | 1026.6 | 99.0 | 34.4 | 0.0 |
| 2025-03-02 08:12:33 | 1.0 | 1026.6 | 99.0 | 40.2 | 0.6 |
| 2025-03-02 08:32:31 | 2.0 | 1026.6 | 97.0 | 43.2 | 1.4 |
| 2025-03-02 08:52:32 | 3.2 | 1026.6 | 94.0 | 45.5 | 1.5 |
| 2025-03-02 09:12:33 | 4.4 | 1026.6 | 92.0 | 52.5 | 0.0 |
| 2025-03-02 09:32:32 | 4.8 | 1026.6 | 90.0 | 63.4 | 0.6 |
| 2025-03-02 09:52:33 | 5.0 | 1026.6 | 87.0 | 75.6 | 1.4 |
| 2025-03-02 10:12:32 | 6.0 | 1026.6 | 84.0 | 96.7 | 0.0 |
| 2025-03-02 10:32:32 | 6.2 | 1026.2 | 83.0 | 54.1 | 3.4 |
| 2025-03-02 10:52:31 | 7.1 | 1025.9 | 76.0 | 53.0 | 1.8 |
| 2025-03-02 11:12:32 | 7.2 | 1025.9 | 76.0 | 54.9 | 2.5 |
| 2025-03-02 11:32:31 | 7.4 | 1025.9 | 76.0 | 240.6 | 2.1 |
| 2025-03-02 11:52:32 | 8.3 | 1025.2 | 72.0 | 277.9 | 1.8 |
| 2025-03-02 12:12:31 | 8.2 | 1025.2 | 74.0 | 290.1 | 1.3 |
| 2025-03-02 12:32:32 | 8.1 | 1025.2 | 70.0 | 299.1 | 0.8 |
| 2025-03-02 12:52:32 | 8.8 | 1024.9 | 69.0 | 301.0 | 0.0 |
| 2025-03-02 13:12:32 | 8.6 | 1024.5 | 69.0 | 298.9 | 2.2 |
| 2025-03-02 13:32:31 | 9.3 | 1024.2 | 67.0 | 299.9 | 0.0 |
| 2025-03-02 13:52:32 | 9.0 | 1023.9 | 68.0 | 285.3 | 2.2 |
| 2025-03-02 14:12:31 | 9.6 | 1023.9 | 62.0 | 277.4 | 1.4 |
| 2025-03-02 14:32:32 | 9.5 | 1023.5 | 63.0 | 270.2 | 1.7 |
| 2025-03-02 14:52:31 | 9.6 | 1023.5 | 66.0 | 247.3 | 3.2 |
| 2025-03-02 15:12:32 | 9.7 | 1023.5 | 66.0 | 229.3 | 0.6 |
| 2025-03-02 15:32:32 | 9.6 | 1023.2 | 64.0 | 206.9 | 1.4 |
| 2025-03-02 15:52:32 | 9.3 | 1022.8 | 65.0 | 177.7 | 1.3 |
| 2025-03-02 16:13:47 | 8.9 | 1022.8 | 67.0 | 0.0 | 0.0 |
CSV export: /station/IWELLEN5/data?period=20250302T000000/20250302T235959&format=csv&tz=GMT